Time;durP1;ratioP1;P1;durP2;ratioP2;P2;SDS_P1;SDS_P2;PMS_P1;PMS_P2;Temp;Humidity;BMP_temperature;BMP_pressure;BME280_temperature;BME280_humidity;BME280_pressure;Samples;Min_cycle;Max_cycle;Signal;HPM_P1;HPM_P2
2021/09/11 00:00:26;;;;;;;18.57;16.17;;;;;;;;;;5013064;28;20795;-72
2021/09/11 00:02:52;;;;;;;18.43;15.00;;;;;;;;;;5013128;28;20432;-71
2021/09/11 00:05:18;;;;;;;16.97;14.40;;;;;;;;;;5012877;28;20518;-70
2021/09/11 00:07:45;;;;;;;19.67;14.00;;;;;;;;;;5012374;28;20456;-71
2021/09/11 00:10:12;;;;;;;19.00;14.27;;;;;;;;;;5012732;28;20460;-71
2021/09/11 00:12:38;;;;;;;14.33;12.20;;;;;;;;;;5019809;28;20823;-71
2021/09/11 00:15:05;;;;;;;15.10;12.80;;;;;;;;;;5032604;28;20758;-72
2021/09/11 00:17:31;;;;;;;19.40;13.70;;;;;;;;;;5032195;28;20411;-72
2021/09/11 00:19:57;;;;;;;15.97;12.57;;;;;;;;;;5016473;28;20437;-71
2021/09/11 00:22:23;;;;;;;15.57;12.67;;;;;;;;;;5016780;28;20436;-72
2021/09/11 00:24:49;;;;;;;16.60;12.90;;;;;;;;;;5016295;28;20425;-71
2021/09/11 00:27:15;;;;;;;16.50;12.57;;;;;;;;;;5016203;28;20413;-71
2021/09/11 00:29:41;;;;;;;15.07;12.33;;;;;;;;;;5016166;28;20433;-72
2021/09/11 00:32:07;;;;;;;15.30;13.03;;;;;;;;;;5016439;28;20491;-72
2021/09/11 00:34:33;;;;;;;15.13;11.93;;;;;;;;;;5016016;28;20514;-71
2021/09/11 00:36:59;;;;;;;16.23;12.70;;;;;;;;;;5015788;28;20414;-71
2021/09/11 00:39:25;;;;;;;14.80;12.70;;;;;;;;;;5018328;28;20441;-72
2021/09/11 00:41:52;;;;;;;17.63;13.37;;;;;;;;;;5015943;28;20984;-72
2021/09/11 00:44:18;;;;;;;17.27;12.60;;;;;;;;;;5015939;28;20461;-71
2021/09/11 00:46:44;;;;;;;15.83;12.17;;;;;;;;;;5015699;28;20424;-71
2021/09/11 00:49:10;;;;;;;18.43;14.07;;;;;;;;;;5014363;28;21085;-71
2021/09/11 00:51:36;;;;;;;19.30;14.17;;;;;;;;;;5016141;28;20503;-71
2021/09/11 00:54:03;;;;;;;18.73;14.10;;;;;;;;;;5015756;28;20821;-72
2021/09/11 00:56:30;;;;;;;21.87;14.93;;;;;;;;;;5016115;28;20425;-71
2021/09/11 00:58:56;;;;;;;24.67;14.80;;;;;;;;;;5015696;28;20468;-71
2021/09/11 01:01:22;;;;;;;23.80;15.47;;;;;;;;;;5015677;28;20879;-73
2021/09/11 01:03:48;;;;;;;28.90;16.67;;;;;;;;;;5016065;28;20425;-71
2021/09/11 01:06:14;;;;;;;21.67;15.53;;;;;;;;;;5013981;28;20445;-69
2021/09/11 01:08:41;;;;;;;24.10;16.63;;;;;;;;;;5015210;28;20833;-71
2021/09/11 01:11:08;;;;;;;27.60;18.13;;;;;;;;;;5015592;28;20457;-72
2021/09/11 01:13:34;;;;;;;24.47;18.87;;;;;;;;;;5015447;28;20456;-72
2021/09/11 01:16:00;;;;;;;24.70;18.90;;;;;;;;;;5015786;28;20743;-72
2021/09/11 01:18:27;;;;;;;31.43;21.33;;;;;;;;;;5016560;28;20441;-71
2021/09/11 01:20:53;;;;;;;28.50;20.10;;;;;;;;;;5035188;28;20424;-73
2021/09/11 01:23:19;;;;;;;27.63;21.40;;;;;;;;;;5035073;28;20431;-73
2021/09/11 01:25:46;;;;;;;25.40;21.23;;;;;;;;;;5034999;28;20428;-72
2021/09/11 01:28:12;;;;;;;29.43;21.40;;;;;;;;;;5034063;28;20413;-73
2021/09/11 01:30:38;;;;;;;33.40;22.83;;;;;;;;;;5027066;28;20418;-73
2021/09/11 01:33:04;;;;;;;29.63;20.93;;;;;;;;;;5015289;28;20974;-73
2021/09/11 01:35:30;;;;;;;28.53;21.30;;;;;;;;;;5015004;28;20421;-72
2021/09/11 01:37:56;;;;;;;31.00;20.43;;;;;;;;;;5014541;28;20406;-72
2021/09/11 01:40:23;;;;;;;31.63;21.23;;;;;;;;;;5016251;28;20429;-71
2021/09/11 01:42:49;;;;;;;35.50;21.97;;;;;;;;;;5014817;28;20763;-72
2021/09/11 01:45:16;;;;;;;33.67;21.30;;;;;;;;;;5014762;28;20464;-71
2021/09/11 01:47:43;;;;;;;34.17;21.10;;;;;;;;;;5014611;28;20882;-72
2021/09/11 01:50:09;;;;;;;34.50;22.47;;;;;;;;;;5014759;28;20430;-72
2021/09/11 01:52:36;;;;;;;31.83;21.00;;;;;;;;;;5014625;28;20421;-71
2021/09/11 01:55:04;;;;;;;34.63;20.80;;;;;;;;;;5014956;28;20453;-71
2021/09/11 01:57:30;;;;;;;32.77;20.80;;;;;;;;;;5014394;28;20417;-71
2021/09/11 01:59:56;;;;;;;33.20;20.47;;;;;;;;;;5013477;28;20934;-72
2021/09/11 02:02:22;;;;;;;33.60;19.90;;;;;;;;;;5014892;28;20426;-71
2021/09/11 02:04:48;;;;;;;35.50;21.30;;;;;;;;;;5014642;28;20421;-71
2021/09/11 02:07:14;;;;;;;35.20;21.07;;;;;;;;;;5014049;28;20799;-72
2021/09/11 02:09:40;;;;;;;33.53;21.07;;;;;;;;;;5014707;28;20453;-71
2021/09/11 02:12:06;;;;;;;37.37;20.73;;;;;;;;;;5014549;28;20432;-71
2021/09/11 02:14:32;;;;;;;34.47;19.63;;;;;;;;;;5014661;28;20457;-72
2021/09/11 02:16:58;;;;;;;32.17;19.50;;;;;;;;;;5014086;28;20418;-72
2021/09/11 02:19:24;;;;;;;38.10;20.40;;;;;;;;;;5024560;28;20917;-73
2021/09/11 02:21:50;;;;;;;33.07;19.70;;;;;;;;;;5033682;28;20423;-70
2021/09/11 02:24:16;;;;;;;32.63;19.47;;;;;;;;;;5034014;28;20421;-71
2021/09/11 02:26:42;;;;;;;34.67;20.10;;;;;;;;;;5032107;28;20439;-71
2021/09/11 02:29:08;;;;;;;34.47;19.60;;;;;;;;;;5033924;28;20847;-71
2021/09/11 02:31:34;;;;;;;34.40;20.90;;;;;;;;;;5033706;28;20428;-72
2021/09/11 02:34:00;;;;;;;38.17;21.10;;;;;;;;;;5033806;28;20459;-72
2021/09/11 02:36:26;;;;;;;41.30;22.77;;;;;;;;;;5033605;28;20415;-72
2021/09/11 02:38:52;;;;;;;40.23;21.20;;;;;;;;;;5033240;28;20428;-71
2021/09/11 02:41:18;;;;;;;44.53;23.10;;;;;;;;;;5032921;28;20427;-71
2021/09/11 02:43:44;;;;;;;46.40;24.40;;;;;;;;;;5033591;28;20896;-72
2021/09/11 02:46:11;;;;;;;44.50;24.20;;;;;;;;;;5033534;28;20497;-72
2021/09/11 02:48:37;;;;;;;50.10;23.10;;;;;;;;;;5033039;28;20937;-70
2021/09/11 02:51:03;;;;;;;41.83;23.23;;;;;;;;;;5033741;28;20416;-71
2021/09/11 02:53:29;;;;;;;42.33;23.90;;;;;;;;;;5033588;28;20465;-71
2021/09/11 02:55:55;;;;;;;44.90;24.77;;;;;;;;;;5025505;28;20405;-72
2021/09/11 02:58:23;;;;;;;48.87;25.80;;;;;;;;;;5013520;28;20414;-71
2021/09/11 03:00:52;;;;;;;52.90;26.10;;;;;;;;;;5013155;28;20499;-72
2021/09/11 03:03:19;;;;;;;47.37;25.40;;;;;;;;;;5013111;28;20429;-71
2021/09/11 03:05:45;;;;;;;46.60;24.13;;;;;;;;;;5013053;28;20422;-71
2021/09/11 03:08:11;;;;;;;48.77;26.07;;;;;;;;;;5013212;28;20410;-71
2021/09/11 03:10:37;;;;;;;49.50;25.00;;;;;;;;;;5013607;28;20429;-71
2021/09/11 03:13:03;;;;;;;53.37;27.57;;;;;;;;;;5013455;28;20791;-72
2021/09/11 03:15:29;;;;;;;55.40;25.87;;;;;;;;;;5013693;28;20508;-71
2021/09/11 03:17:55;;;;;;;51.37;26.70;;;;;;;;;;5013177;28;20433;-71
2021/09/11 03:20:21;;;;;;;52.60;25.33;;;;;;;;;;5030123;28;20435;-71
2021/09/11 03:22:47;;;;;;;53.90;27.60;;;;;;;;;;5033426;28;20420;-72
2021/09/11 03:25:14;;;;;;;55.70;26.30;;;;;;;;;;5032993;28;20408;-72
2021/09/11 03:27:40;;;;;;;47.20;25.33;;;;;;;;;;5031551;28;20453;-72
2021/09/11 03:30:07;;;;;;;52.97;24.40;;;;;;;;;;5029084;28;20462;-72
2021/09/11 03:32:33;;;;;;;45.77;24.33;;;;;;;;;;5013123;28;20414;-72
2021/09/11 03:34:59;;;;;;;51.77;24.37;;;;;;;;;;5013241;28;20464;-72
2021/09/11 03:37:25;;;;;;;47.37;25.00;;;;;;;;;;5012665;28;20500;-72
2021/09/11 03:39:51;;;;;;;53.23;24.90;;;;;;;;;;5013902;28;20425;-72
2021/09/11 03:42:17;;;;;;;44.20;22.60;;;;;;;;;;5013400;28;20500;-72
2021/09/11 03:44:43;;;;;;;48.30;25.00;;;;;;;;;;5013216;28;20468;-72
2021/09/11 03:47:09;;;;;;;51.07;24.73;;;;;;;;;;5012676;28;20413;-71
2021/09/11 03:49:35;;;;;;;56.80;26.30;;;;;;;;;;5012931;28;20521;-72
2021/09/11 03:52:01;;;;;;;37.33;19.30;;;;;;;;;;5015351;28;20417;-72
2021/09/11 03:54:29;;;;;;;56.17;26.50;;;;;;;;;;5016968;28;20457;-73
2021/09/11 03:56:55;;;;;;;56.00;28.13;;;;;;;;;;5016434;28;20428;-72
2021/09/11 03:59:21;;;;;;;56.73;27.80;;;;;;;;;;5016768;28;20437;-70
2021/09/11 04:01:47;;;;;;;53.17;26.40;;;;;;;;;;5016920;28;20417;-71
2021/09/11 04:04:13;;;;;;;62.27;28.73;;;;;;;;;;5016887;28;20890;-71
2021/09/11 04:06:39;;;;;;;56.13;26.33;;;;;;;;;;5016142;28;20517;-71
2021/09/11 04:09:05;;;;;;;62.13;29.73;;;;;;;;;;5016492;28;20445;-71
2021/09/11 04:11:31;;;;;;;57.23;28.53;;;;;;;;;;5016572;28;20813;-70
2021/09/11 04:13:57;;;;;;;58.60;26.97;;;;;;;;;;5016755;28;20818;-71
2021/09/11 04:16:23;;;;;;;58.63;28.17;;;;;;;;;;5016355;28;20417;-70
2021/09/11 04:18:49;;;;;;;69.50;30.73;;;;;;;;;;5020916;28;20460;-70
2021/09/11 04:21:15;;;;;;;70.40;30.77;;;;;;;;;;5036173;28;20447;-71
2021/09/11 04:23:41;;;;;;;73.83;31.90;;;;;;;;;;5035950;28;20505;-73
2021/09/11 04:26:07;;;;;;;73.17;31.77;;;;;;;;;;5036135;28;20421;-71
2021/09/11 04:28:33;;;;;;;79.00;32.90;;;;;;;;;;5031624;28;20440;-70
2021/09/11 04:30:59;;;;;;;64.43;30.57;;;;;;;;;;5016394;28;20786;-71
2021/09/11 04:33:25;;;;;;;72.07;33.13;;;;;;;;;;5016167;28;20454;-70
2021/09/11 04:35:51;;;;;;;65.93;31.03;;;;;;;;;;5016277;28;20416;-71
2021/09/11 04:38:17;;;;;;;83.23;33.33;;;;;;;;;;5015787;28;20905;-71
2021/09/11 04:40:43;;;;;;;83.30;34.40;;;;;;;;;;5018126;28;20414;-71
2021/09/11 04:43:09;;;;;;;85.40;33.33;;;;;;;;;;5016047;28;20445;-70
2021/09/11 04:45:35;;;;;;;82.83;35.20;;;;;;;;;;5016208;28;20414;-73
2021/09/11 04:48:02;;;;;;;67.80;32.20;;;;;;;;;;5015705;28;20418;-71
2021/09/11 04:50:28;;;;;;;75.50;34.20;;;;;;;;;;5016194;28;20437;-72
2021/09/11 04:52:55;;;;;;;83.40;35.87;;;;;;;;;;5015719;28;20417;-71
2021/09/11 04:55:21;;;;;;;98.87;36.60;;;;;;;;;;5015780;28;20444;-71
2021/09/11 04:57:47;;;;;;;80.60;37.00;;;;;;;;;;5015321;28;20418;-71
2021/09/11 05:00:14;;;;;;;101.03;37.43;;;;;;;;;;5015580;28;20433;-72
2021/09/11 05:02:40;;;;;;;86.00;34.23;;;;;;;;;;5014975;28;20413;-72
2021/09/11 05:05:06;;;;;;;88.47;35.50;;;;;;;;;;5015848;28;20422;-72
2021/09/11 05:07:32;;;;;;;87.47;36.57;;;;;;;;;;5014951;28;20866;-71
2021/09/11 05:09:58;;;;;;;87.20;36.10;;;;;;;;;;5015674;28;20441;-72
2021/09/11 05:12:24;;;;;;;92.67;37.70;;;;;;;;;;5014608;28;20772;-72
2021/09/11 05:14:50;;;;;;;91.33;37.73;;;;;;;;;;5014511;28;20461;-72
2021/09/11 05:17:16;;;;;;;94.40;38.07;;;;;;;;;;5015208;28;20461;-73
2021/09/11 05:19:42;;;;;;;86.60;34.53;;;;;;;;;;5016219;28;20996;-72
2021/09/11 05:22:08;;;;;;;99.50;36.93;;;;;;;;;;5015372;28;20410;-72
2021/09/11 05:24:35;;;;;;;92.57;37.30;;;;;;;;;;5015480;28;20422;-72
2021/09/11 05:27:01;;;;;;;93.47;37.50;;;;;;;;;;5015075;28;20500;-73
2021/09/11 05:29:27;;;;;;;83.43;34.20;;;;;;;;;;5022975;28;20437;-72
2021/09/11 05:31:53;;;;;;;85.53;34.87;;;;;;;;;;5016693;28;20519;-74
2021/09/11 05:34:19;;;;;;;90.70;36.23;;;;;;;;;;5014786;28;20547;-72
2021/09/11 05:36:47;;;;;;;90.77;35.47;;;;;;;;;;5014846;28;20418;-72
2021/09/11 05:39:13;;;;;;;90.20;34.10;;;;;;;;;;5015015;28;20440;-73
2021/09/11 05:41:39;;;;;;;91.33;34.87;;;;;;;;;;5016386;28;20405;-72
2021/09/11 05:44:05;;;;;;;90.23;35.67;;;;;;;;;;5014833;28;20419;-72
2021/09/11 05:46:31;;;;;;;101.97;36.87;;;;;;;;;;5014524;28;20424;-70
2021/09/11 05:48:57;;;;;;;95.30;37.50;;;;;;;;;;5013424;28;20437;-72
2021/09/11 05:51:24;;;;;;;91.10;35.57;;;;;;;;;;5014778;28;20413;-70
2021/09/11 05:53:50;;;;;;;83.37;34.30;;;;;;;;;;5013509;28;20467;-73
2021/09/11 05:56:16;;;;;;;73.63;33.93;;;;;;;;;;5014493;28;20835;-73
2021/09/11 05:58:42;;;;;;;67.30;32.60;;;;;;;;;;5014506;28;20433;-72
2021/09/11 06:01:08;;;;;;;67.40;31.23;;;;;;;;;;5014718;28;20937;-72
2021/09/11 06:03:34;;;;;;;70.30;33.33;;;;;;;;;;5014966;28;20472;-72
2021/09/11 06:06:00;;;;;;;69.00;30.57;;;;;;;;;;5014570;28;20426;-72
2021/09/11 06:08:27;;;;;;;60.40;31.50;;;;;;;;;;5013959;28;20501;-71
2021/09/11 06:10:53;;;;;;;56.03;29.73;;;;;;;;;;5014661;28;20421;-72
2021/09/11 06:13:19;;;;;;;58.60;28.90;;;;;;;;;;5014409;28;20456;-72
2021/09/11 06:15:45;;;;;;;53.00;29.30;;;;;;;;;;5014301;28;20417;-71
2021/09/11 06:18:11;;;;;;;55.30;28.00;;;;;;;;;;5013989;28;20905;-71
2021/09/11 06:20:37;;;;;;;55.30;29.47;;;;;;;;;;5014433;28;20484;-72
2021/09/11 06:23:03;;;;;;;52.57;29.57;;;;;;;;;;5014264;28;20941;-72
2021/09/11 06:25:29;;;;;;;55.40;29.47;;;;;;;;;;5014494;28;20891;-71
2021/09/11 06:27:55;;;;;;;53.17;32.27;;;;;;;;;;5013940;28;20421;-72
2021/09/11 06:30:22;;;;;;;54.10;30.07;;;;;;;;;;5023109;28;20783;-71
2021/09/11 06:32:48;;;;;;;55.23;30.77;;;;;;;;;;5013995;28;20421;-73
2021/09/11 06:35:14;;;;;;;50.03;28.93;;;;;;;;;;5014230;28;20564;-71
2021/09/11 06:37:40;;;;;;;49.87;29.40;;;;;;;;;;5013842;28;20423;-71
2021/09/11 06:40:07;;;;;;;46.20;29.20;;;;;;;;;;5015048;28;20434;-73
2021/09/11 06:42:33;;;;;;;39.80;27.40;;;;;;;;;;5014068;28;20444;-71
2021/09/11 06:45:00;;;;;;;43.27;27.80;;;;;;;;;;5013748;28;20422;-72
2021/09/11 06:47:26;;;;;;;39.80;25.60;;;;;;;;;;5013561;28;20840;-69
2021/09/11 06:49:52;;;;;;;40.70;28.23;;;;;;;;;;5013679;28;20495;-72
2021/09/11 06:52:20;;;;;;;39.50;25.80;;;;;;;;;;5014035;28;20425;-72
2021/09/11 06:54:46;;;;;;;38.33;24.63;;;;;;;;;;5013559;28;20966;-72
2021/09/11 06:57:12;;;;;;;34.27;25.03;;;;;;;;;;5013320;28;20740;-71
2021/09/11 06:59:38;;;;;;;39.27;27.63;;;;;;;;;;5013637;28;20524;-71
2021/09/11 07:02:05;;;;;;;39.43;26.27;;;;;;;;;;5013537;28;20452;-71
2021/09/11 07:04:31;;;;;;;35.03;25.80;;;;;;;;;;5013794;28;20421;-71
2021/09/11 07:06:57;;;;;;;37.37;27.90;;;;;;;;;;5012894;28;20443;-72
2021/09/11 07:09:23;;;;;;;34.77;24.30;;;;;;;;;;5013323;28;20441;-72
2021/09/11 07:11:49;;;;;;;29.70;24.77;;;;;;;;;;5013874;28;20815;-72
2021/09/11 07:14:16;;;;;;;35.77;27.13;;;;;;;;;;5013536;28;20464;-72
2021/09/11 07:16:43;;;;;;;32.70;25.17;;;;;;;;;;5013160;28;20421;-74
2021/09/11 07:19:09;;;;;;;37.30;27.60;;;;;;;;;;5013262;28;20449;-70
2021/09/11 07:21:35;;;;;;;30.60;25.40;;;;;;;;;;5013594;28;20436;-72
2021/09/11 07:24:01;;;;;;;35.03;26.73;;;;;;;;;;5013255;28;20446;-73
2021/09/11 07:26:27;;;;;;;34.67;26.30;;;;;;;;;;5013105;28;20449;-73
2021/09/11 07:28:55;;;;;;;36.90;26.50;;;;;;;;;;5016255;28;20928;-72
2021/09/11 07:31:21;;;;;;;36.80;26.30;;;;;;;;;;5032891;28;20418;-71
2021/09/11 07:33:47;;;;;;;31.73;23.63;;;;;;;;;;5023761;28;20467;-73
2021/09/11 07:36:13;;;;;;;31.07;23.77;;;;;;;;;;5025551;28;20900;-73
2021/09/11 07:38:39;;;;;;;34.60;24.80;;;;;;;;;;5039603;28;20481;-72
2021/09/11 07:41:06;;;;;;;30.07;23.23;;;;;;;;;;5023397;28;20421;-72
2021/09/11 07:43:32;;;;;;;33.80;24.90;;;;;;;;;;5018577;28;20421;-72
2021/09/11 07:45:58;;;;;;;32.50;23.53;;;;;;;;;;5044376;28;20410;-72
2021/09/11 07:48:24;;;;;;;32.90;23.77;;;;;;;;;;5034047;28;20804;-72
2021/09/11 07:50:51;;;;;;;35.23;23.57;;;;;;;;;;5026860;28;20421;-72
2021/09/11 07:53:17;;;;;;;33.83;25.27;;;;;;;;;;5039144;28;20459;-72
2021/09/11 07:55:43;;;;;;;34.10;24.40;;;;;;;;;;5037330;28;20409;-72
2021/09/11 07:58:09;;;;;;;34.10;23.40;;;;;;;;;;5030272;28;20414;-72
2021/09/11 08:00:35;;;;;;;32.30;23.93;;;;;;;;;;5012778;28;20973;-73
2021/09/11 08:03:01;;;;;;;32.93;24.53;;;;;;;;;;5017055;28;20425;-73
2021/09/11 08:05:27;;;;;;;34.20;24.07;;;;;;;;;;5014905;28;20443;-73
2021/09/11 08:07:53;;;;;;;31.90;23.10;;;;;;;;;;5011988;28;20428;-73
2021/09/11 08:10:20;;;;;;;33.63;23.93;;;;;;;;;;5009120;28;20476;-72
2021/09/11 08:12:49;;;;;;;34.77;23.37;;;;;;;;;;5009237;28;20766;-71
2021/09/11 08:15:16;;;;;;;30.93;23.03;;;;;;;;;;5009068;28;20831;-72
2021/09/11 08:17:43;;;;;;;34.73;24.20;;;;;;;;;;5008716;28;20425;-72
2021/09/11 08:20:09;;;;;;;32.50;24.00;;;;;;;;;;5014389;28;20469;-73
2021/09/11 08:22:35;;;;;;;31.00;23.73;;;;;;;;;;5009217;28;20421;-74
2021/09/11 08:25:01;;;;;;;30.80;24.03;;;;;;;;;;5009194;28;21206;-71
2021/09/11 08:27:27;;;;;;;33.37;24.20;;;;;;;;;;5007191;28;20516;-73
2021/09/11 08:29:54;;;;;;;36.70;26.03;;;;;;;;;;5020457;28;20942;-73
2021/09/11 08:32:20;;;;;;;34.27;23.93;;;;;;;;;;5010321;28;20440;-72
2021/09/11 08:34:46;;;;;;;33.13;24.13;;;;;;;;;;5008757;28;20478;-72
2021/09/11 08:37:12;;;;;;;32.67;25.67;;;;;;;;;;5008538;28;20507;-72
2021/09/11 08:39:38;;;;;;;32.40;24.90;;;;;;;;;;5011685;28;20761;-73
2021/09/11 08:42:04;;;;;;;36.33;25.33;;;;;;;;;;5030945;28;20482;-73
2021/09/11 08:44:31;;;;;;;38.10;24.47;;;;;;;;;;5032054;28;20455;-71
2021/09/11 08:46:57;;;;;;;37.87;26.60;;;;;;;;;;5031800;28;20792;-72
2021/09/11 08:49:23;;;;;;;35.40;24.90;;;;;;;;;;5032066;28;20471;-72
2021/09/11 08:51:50;;;;;;;36.07;24.97;;;;;;;;;;5031927;28;20458;-72
2021/09/11 08:54:19;;;;;;;38.50;25.70;;;;;;;;;;5031927;28;20470;-72
2021/09/11 08:56:46;;;;;;;39.17;25.70;;;;;;;;;;5016648;28;20416;-72
2021/09/11 08:59:13;;;;;;;34.77;24.40;;;;;;;;;;5025193;28;20471;-72
2021/09/11 09:01:39;;;;;;;32.37;23.63;;;;;;;;;;5030411;28;21218;-71
2021/09/11 09:04:06;;;;;;;37.13;25.50;;;;;;;;;;5030414;28;20785;-72
2021/09/11 09:06:32;;;;;;;45.17;25.60;;;;;;;;;;5031309;28;20547;-72
2021/09/11 09:09:04;;;;;;;39.60;25.77;;;;;;;;;;5019851;28;20445;-72
2021/09/11 09:11:32;;;;;;;39.00;25.77;;;;;;;;;;5021416;28;20427;-72
2021/09/11 09:14:06;;;;;;;42.80;26.47;;;;;;;;;;5029059;28;20634;-73
2021/09/11 09:16:36;;;;;;;41.53;26.83;;;;;;;;;;5015314;28;20417;-71
2021/09/11 09:19:12;;;;;;;39.43;25.90;;;;;;;;;;5015389;28;20496;-72
2021/09/11 09:21:39;;;;;;;40.43;27.30;;;;;;;;;;5015463;28;20429;-72
2021/09/11 09:24:06;;;;;;;41.47;27.00;;;;;;;;;;5015484;28;20429;-73
2021/09/11 09:26:53;;;;;;;43.87;27.53;;;;;;;;;;5022483;28;20435;-72
2021/09/11 09:29:20;;;;;;;38.87;25.83;;;;;;;;;;5022422;28;20464;-72
2021/09/11 09:31:47;;;;;;;40.97;27.47;;;;;;;;;;5020107;28;20414;-71
2021/09/11 09:34:48;;;;;;;40.70;26.90;;;;;;;;;;5015073;28;20457;-72
2021/09/11 09:37:17;;;;;;;39.40;27.20;;;;;;;;;;5011597;28;20427;-72
2021/09/11 09:39:44;;;;;;;38.53;27.53;;;;;;;;;;5014281;28;20935;-72
2021/09/11 09:42:11;;;;;;;39.00;28.67;;;;;;;;;;5014867;28;20770;-72
2021/09/11 09:44:44;;;;;;;38.33;27.20;;;;;;;;;;5014894;28;20941;-74
2021/09/11 09:47:14;;;;;;;36.10;26.10;;;;;;;;;;5021909;28;20408;-72
2021/09/11 09:49:41;;;;;;;33.93;24.30;;;;;;;;;;5034129;28;20440;-72
2021/09/11 09:52:07;;;;;;;34.23;25.50;;;;;;;;;;5034470;28;20570;-72
2021/09/11 09:54:33;;;;;;;31.33;24.93;;;;;;;;;;5034362;28;20949;-71
2021/09/11 09:56:59;;;;;;;30.00;22.77;;;;;;;;;;5017228;28;20946;-70
2021/09/11 09:59:26;;;;;;;30.33;24.23;;;;;;;;;;5014336;28;20457;-71
2021/09/11 10:01:52;;;;;;;30.50;23.67;;;;;;;;;;5014289;28;20846;-72
2021/09/11 10:04:19;;;;;;;30.00;22.97;;;;;;;;;;5014101;28;20508;-72
2021/09/11 10:06:48;;;;;;;28.50;22.27;;;;;;;;;;5030201;28;20444;-72
2021/09/11 10:09:14;;;;;;;26.30;22.20;;;;;;;;;;5033802;28;20472;-72
2021/09/11 10:11:51;;;;;;;25.90;22.03;;;;;;;;;;5033799;28;20417;-71
2021/09/11 10:14:21;;;;;;;22.70;20.27;;;;;;;;;;5033762;28;20555;-70
2021/09/11 10:16:58;;;;;;;22.40;19.97;;;;;;;;;;5033568;28;20719;-72
2021/09/11 10:19:25;;;;;;;20.13;17.87;;;;;;;;;;5016883;28;20485;-71
2021/09/11 10:21:52;;;;;;;22.77;20.37;;;;;;;;;;5013934;28;20416;-73
2021/09/11 10:24:18;;;;;;;21.93;18.13;;;;;;;;;;5013843;28;20452;-73
2021/09/11 10:26:47;;;;;;;19.73;17.30;;;;;;;;;;5013703;28;20891;-72
2021/09/11 10:29:31;;;;;;;22.27;17.57;;;;;;;;;;5019814;28;20432;-70
2021/09/11 10:31:58;;;;;;;20.57;18.00;;;;;;;;;;5018473;28;20417;-72
2021/09/11 10:34:44;;;;;;;22.97;19.07;;;;;;;;;;5013729;28;20461;-73
2021/09/11 10:37:10;;;;;;;26.70;20.63;;;;;;;;;;5012159;28;20466;-73
2021/09/11 10:39:37;;;;;;;22.73;18.57;;;;;;;;;;5013834;28;20426;-72
2021/09/11 10:42:07;;;;;;;22.53;17.83;;;;;;;;;;5013817;28;20409;-72
2021/09/11 10:44:33;;;;;;;25.27;19.10;;;;;;;;;;5013911;28;20460;-71
2021/09/11 10:46:59;;;;;;;25.83;19.90;;;;;;;;;;5013256;28;20414;-72
2021/09/11 10:49:29;;;;;;;28.03;20.47;;;;;;;;;;5013617;28;20469;-72
2021/09/11 10:52:05;;;;;;;20.73;18.30;;;;;;;;;;5013513;28;20417;-70
2021/09/11 10:54:42;;;;;;;24.20;19.40;;;;;;;;;;5013368;28;20487;-71
2021/09/11 10:57:18;;;;;;;25.53;21.90;;;;;;;;;;5013177;28;20902;-71
2021/09/11 10:59:45;;;;;;;23.20;20.23;;;;;;;;;;5013491;28;20430;-71
2021/09/11 11:02:11;;;;;;;24.00;20.10;;;;;;;;;;5012819;28;20417;-72
2021/09/11 11:04:49;;;;;;;26.97;21.27;;;;;;;;;;5011946;28;20783;-73
2021/09/11 11:07:15;;;;;;;26.07;20.47;;;;;;;;;;5025135;28;20428;-71
2021/09/11 11:09:43;;;;;;;24.90;21.40;;;;;;;;;;5032917;28;20432;-72
2021/09/11 11:12:10;;;;;;;24.73;21.43;;;;;;;;;;5033114;28;20420;-74
2021/09/11 11:14:38;;;;;;;25.67;21.70;;;;;;;;;;5032814;28;20495;-72
2021/09/11 11:17:04;;;;;;;22.20;19.77;;;;;;;;;;5019252;28;20417;-72
2021/09/11 11:19:31;;;;;;;19.93;17.50;;;;;;;;;;5013105;28;20495;-72
2021/09/11 11:22:02;;;;;;;22.83;19.27;;;;;;;;;;5013321;28;20406;-71
2021/09/11 11:24:30;;;;;;;20.27;17.77;;;;;;;;;;5013168;28;20439;-71
2021/09/11 11:26:58;;;;;;;20.30;18.30;;;;;;;;;;5012707;28;20428;-71
2021/09/11 11:29:26;;;;;;;18.40;16.50;;;;;;;;;;5020633;28;20975;-71
2021/09/11 11:31:52;;;;;;;19.23;17.23;;;;;;;;;;5017743;28;20453;-73
2021/09/11 11:34:18;;;;;;;18.30;16.47;;;;;;;;;;5013022;28;20465;-72
2021/09/11 11:36:48;;;;;;;17.23;15.43;;;;;;;;;;5014307;28;20421;-71
2021/09/11 11:39:23;;;;;;;15.57;14.00;;;;;;;;;;5023800;28;20468;-72
2021/09/11 11:41:58;;;;;;;14.97;13.40;;;;;;;;;;5013051;28;20428;-72
2021/09/11 11:44:24;;;;;;;14.03;12.60;;;;;;;;;;5012991;28;20898;-73
2021/09/11 11:47:11;;;;;;;13.43;12.33;;;;;;;;;;5012436;28;20414;-73
2021/09/11 11:49:38;;;;;;;14.37;13.07;;;;;;;;;;5009122;28;20623;-73
2021/09/11 11:52:05;;;;;;;13.70;12.50;;;;;;;;;;5012950;28;20905;-72
2021/09/11 11:54:33;;;;;;;13.87;12.47;;;;;;;;;;5012792;28;20457;-73
2021/09/11 11:57:06;;;;;;;14.23;12.83;;;;;;;;;;5012313;28;20471;-72
2021/09/11 11:59:32;;;;;;;13.53;12.33;;;;;;;;;;5012777;28;20504;-73
2021/09/11 12:01:58;;;;;;;13.33;12.13;;;;;;;;;;5013009;28;20844;-72
2021/09/11 12:04:24;;;;;;;14.57;13.27;;;;;;;;;;5012871;28;20812;-72
2021/09/11 12:06:52;;;;;;;15.00;13.60;;;;;;;;;;5029449;28;20439;-73
2021/09/11 12:09:18;;;;;;;15.07;13.67;;;;;;;;;;5032279;28;20433;-73
2021/09/11 12:11:46;;;;;;;15.13;13.53;;;;;;;;;;5033008;28;20500;-72
2021/09/11 12:14:13;;;;;;;12.83;11.53;;;;;;;;;;5036096;28;20802;-72
2021/09/11 12:16:39;;;;;;;13.13;11.83;;;;;;;;;;5035919;28;20419;-71
2021/09/11 12:19:13;;;;;;;12.20;11.13;;;;;;;;;;5021372;28;20437;-73
2021/09/11 12:21:39;;;;;;;14.50;13.20;;;;;;;;;;5016266;28;20413;-71
2021/09/11 12:24:05;;;;;;;13.17;11.97;;;;;;;;;;5016216;28;20417;-71
2021/09/11 12:26:33;;;;;;;12.70;11.60;;;;;;;;;;5016281;28;20413;-72
2021/09/11 12:29:09;;;;;;;11.90;10.93;;;;;;;;;;5019976;28;20432;-72
2021/09/11 12:31:39;;;;;;;10.43;9.63;;;;;;;;;;5023587;28;20432;-72
2021/09/11 12:34:18;;;;;;;10.63;9.63;;;;;;;;;;5015965;28;20460;-72
2021/09/11 12:36:48;;;;;;;11.47;10.40;;;;;;;;;;5015980;28;20816;-72
2021/09/11 12:39:23;;;;;;;9.43;8.73;;;;;;;;;;5015984;28;20523;-72
2021/09/11 12:41:50;;;;;;;9.23;8.53;;;;;;;;;;5016058;28;20513;-74
2021/09/11 12:44:19;;;;;;;9.30;8.40;;;;;;;;;;5015877;28;20413;-72
2021/09/11 12:46:48;;;;;;;9.87;9.17;;;;;;;;;;5015494;28;20859;-71
2021/09/11 12:49:14;;;;;;;9.77;8.97;;;;;;;;;;5014311;28;20850;-73
2021/09/11 12:51:41;;;;;;;11.90;10.80;;;;;;;;;;5015952;28;20432;-72
2021/09/11 12:54:07;;;;;;;10.50;9.57;;;;;;;;;;5015652;28;20555;-73
2021/09/11 12:56:33;;;;;;;9.73;8.83;;;;;;;;;;5015473;28;20445;-72
2021/09/11 12:58:59;;;;;;;10.20;9.20;;;;;;;;;;5015559;28;20434;-74
2021/09/11 13:01:26;;;;;;;9.33;8.63;;;;;;;;;;5015415;28;20433;-72
2021/09/11 13:03:53;;;;;;;8.10;7.50;;;;;;;;;;5015686;28;20443;-71
2021/09/11 13:06:19;;;;;;;8.77;8.10;;;;;;;;;;5028520;28;20523;-72
2021/09/11 13:08:45;;;;;;;8.77;8.17;;;;;;;;;;5034971;28;20436;-72
2021/09/11 13:11:11;;;;;;;10.10;9.10;;;;;;;;;;5017155;28;20834;-72
2021/09/11 13:13:37;;;;;;;10.50;9.50;;;;;;;;;;5015210;28;20473;-73
2021/09/11 13:16:04;;;;;;;12.40;11.30;;;;;;;;;;5015328;28;20444;-73
2021/09/11 13:18:30;;;;;;;10.87;9.97;;;;;;;;;;5014918;28;20422;-72
2021/09/11 13:20:58;;;;;;;9.93;9.03;;;;;;;;;;5033274;28;20412;-73
2021/09/11 13:23:25;;;;;;;9.77;8.80;;;;;;;;;;5034594;28;20409;-72
2021/09/11 13:25:52;;;;;;;10.27;9.27;;;;;;;;;;5034766;28;20409;-73
2021/09/11 13:28:18;;;;;;;10.00;9.20;;;;;;;;;;5034529;28;20455;-72
2021/09/11 13:30:44;;;;;;;10.70;9.77;;;;;;;;;;5029369;28;20417;-72
2021/09/11 13:33:10;;;;;;;10.20;9.30;;;;;;;;;;5014979;28;20416;-72
2021/09/11 13:35:36;;;;;;;11.80;10.70;;;;;;;;;;5014778;28;20413;-71
2021/09/11 13:38:02;;;;;;;10.67;9.77;;;;;;;;;;5014738;28;20418;-73
2021/09/11 13:40:28;;;;;;;11.23;10.33;;;;;;;;;;5014765;28;20469;-72
2021/09/11 13:42:54;;;;;;;10.53;9.63;;;;;;;;;;5014850;28;20495;-72
2021/09/11 13:45:20;;;;;;;9.63;8.83;;;;;;;;;;5014576;28;20421;-73
2021/09/11 13:47:46;;;;;;;10.73;9.70;;;;;;;;;;5014534;28;20440;-73
2021/09/11 13:50:12;;;;;;;10.83;10.00;;;;;;;;;;5014555;28;20434;-73
2021/09/11 13:52:38;;;;;;;11.77;10.67;;;;;;;;;;5014650;28;20476;-72
2021/09/11 13:55:05;;;;;;;12.20;10.30;;;;;;;;;;5014400;28;20464;-72
2021/09/11 13:57:31;;;;;;;12.57;11.27;;;;;;;;;;5012934;28;20426;-74
2021/09/11 13:59:57;;;;;;;10.90;9.30;;;;;;;;;;5014260;28;20508;-72
2021/09/11 14:02:23;;;;;;;11.23;9.80;;;;;;;;;;5014465;28;20418;-72
2021/09/11 14:04:49;;;;;;;11.40;10.30;;;;;;;;;;5015057;28;20422;-72
2021/09/11 14:07:15;;;;;;;12.17;11.07;;;;;;;;;;5033812;28;20494;-73
2021/09/11 14:09:41;;;;;;;10.47;9.67;;;;;;;;;;5033846;28;20945;-74
2021/09/11 14:12:07;;;;;;;10.30;9.60;;;;;;;;;;5033906;28;20475;-73
2021/09/11 14:14:33;;;;;;;10.93;10.03;;;;;;;;;;5033843;28;20559;-73
2021/09/11 14:17:00;;;;;;;12.23;11.23;;;;;;;;;;5033744;28;20497;-73